createdAt,value
2018-06-14T00:00:23.181Z,2.50
2018-06-14T00:02:53.643Z,2.90
2018-06-14T00:05:24.116Z,3.17
2018-06-14T00:07:55.822Z,3.40
2018-06-14T00:10:26.261Z,3.37
2018-06-14T00:12:56.573Z,2.50
2018-06-14T00:15:26.927Z,2.27
2018-06-14T00:17:57.261Z,2.50
2018-06-14T00:20:27.589Z,2.00
2018-06-14T00:23:03.653Z,2.40
2018-06-14T00:25:47.181Z,2.43
2018-06-14T00:28:40.497Z,2.23
2018-06-14T00:31:10.938Z,2.50
2018-06-14T00:33:41.285Z,2.63
2018-06-14T00:36:11.711Z,2.50
2018-06-14T00:38:43.425Z,2.10
2018-06-14T00:41:13.869Z,2.20
2018-06-14T00:43:44.424Z,2.30
2018-06-14T00:46:14.812Z,2.87
2018-06-14T00:48:48.249Z,3.20
2018-06-14T00:51:18.642Z,3.53
2018-06-14T00:53:49.059Z,2.67
2018-06-14T00:56:19.173Z,3.23
2018-06-14T00:58:49.649Z,2.70
2018-06-14T01:01:20.102Z,2.70
2018-06-14T01:03:50.487Z,2.57
2018-06-14T01:06:20.980Z,2.70
2018-06-14T01:08:54.573Z,2.73
2018-06-14T01:11:24.936Z,3.27
2018-06-14T01:13:56.037Z,3.23
2018-06-14T01:16:26.471Z,4.40
2018-06-14T01:18:56.863Z,5.43
2018-06-14T01:21:27.306Z,6.83
2018-06-14T01:23:57.586Z,7.80
2018-06-14T01:26:28.032Z,8.40
2018-06-14T01:29:01.965Z,8.27
2018-06-14T01:31:32.383Z,8.03
2018-06-14T01:34:02.692Z,8.13
2018-06-14T01:36:32.924Z,6.83
2018-06-14T01:39:03.703Z,5.70
2018-06-14T01:41:34.144Z,5.53
2018-06-14T01:44:04.468Z,3.57
2018-06-14T01:46:34.813Z,3.30
2018-06-14T01:49:08.700Z,3.63
2018-06-14T01:51:39.176Z,3.37
2018-06-14T01:54:09.178Z,4.50
2018-06-14T01:56:39.566Z,3.70
2018-06-14T01:59:13.036Z,3.80
2018-06-14T02:01:43.526Z,3.20
2018-06-14T02:04:13.834Z,3.07
2018-06-14T02:06:44.244Z,3.23
2018-06-14T02:09:18.136Z,2.90
2018-06-14T02:11:48.350Z,2.60
2018-06-14T02:14:18.808Z,3.00
2018-06-14T02:16:49.085Z,2.37
2018-06-14T02:19:23.574Z,2.10
2018-06-14T02:21:54.002Z,2.40
2018-06-14T02:24:24.467Z,2.00
2018-06-14T02:26:54.913Z,3.20
2018-06-14T02:29:28.958Z,1.60
2018-06-14T02:31:59.273Z,1.40
2018-06-14T02:34:29.593Z,1.70
2018-06-14T02:36:59.816Z,1.53
2018-06-14T02:39:33.353Z,1.63
2018-06-14T02:42:03.609Z,2.00
2018-06-14T02:44:33.616Z,2.00
2018-06-14T02:47:03.911Z,2.47
2018-06-14T02:49:37.821Z,2.37
2018-06-14T02:52:08.198Z,2.60
2018-06-14T02:54:38.609Z,2.60
2018-06-14T02:57:08.944Z,2.73
2018-06-14T02:59:39.249Z,3.13
2018-06-14T03:02:09.740Z,3.80
2018-06-14T03:04:40.124Z,3.17
2018-06-14T03:07:10.545Z,3.20
2018-06-14T03:09:41.008Z,2.90
2018-06-14T03:12:11.464Z,2.73
2018-06-14T03:14:41.898Z,3.10
2018-06-14T03:17:12.417Z,3.30
2018-06-14T03:19:42.819Z,2.80
2018-06-14T03:22:13.016Z,2.43
2018-06-14T03:24:43.493Z,2.20
2018-06-14T03:27:17.863Z,2.63
2018-06-14T03:29:48.267Z,2.97
2018-06-14T03:32:18.337Z,3.10
2018-06-14T03:34:48.693Z,2.70
2018-06-14T03:37:19.160Z,3.70
2018-06-14T03:39:49.645Z,3.33
2018-06-14T03:42:20.044Z,3.80
2018-06-14T03:44:50.408Z,3.80
2018-06-14T03:47:23.863Z,3.40
2018-06-14T03:49:54.221Z,3.40
2018-06-14T03:52:24.650Z,2.67
2018-06-14T03:54:54.974Z,3.67
2018-06-14T03:57:31.122Z,3.23
2018-06-14T04:00:01.365Z,3.27
2018-06-14T04:02:31.681Z,4.20
2018-06-14T04:05:01.953Z,4.47
2018-06-14T04:07:32.481Z,2.77
2018-06-14T04:10:02.969Z,3.10
2018-06-14T04:12:33.160Z,2.53
2018-06-14T04:15:03.628Z,4.07
2018-06-14T04:17:35.123Z,3.30
2018-06-14T04:20:05.429Z,2.77
2018-06-14T04:22:35.773Z,3.10
2018-06-14T04:25:06.150Z,3.10
2018-06-14T04:27:40.996Z,3.10
2018-06-14T04:30:11.467Z,3.17
2018-06-14T04:32:41.870Z,2.93
2018-06-14T04:35:12.317Z,3.10
2018-06-14T04:37:42.679Z,4.40
2018-06-14T04:40:13.130Z,3.60
2018-06-14T04:42:43.404Z,3.73
2018-06-14T04:45:13.702Z,3.73
2018-06-14T04:47:45.283Z,3.20
2018-06-14T04:50:15.721Z,2.93
2018-06-14T04:52:46.118Z,2.93
2018-06-14T04:55:16.478Z,3.40
2018-06-14T04:57:49.829Z,3.50
2018-06-14T05:00:20.522Z,3.70
2018-06-14T05:02:51.032Z,4.50
2018-06-14T05:05:21.282Z,4.87
2018-06-14T05:07:51.850Z,6.07
2018-06-14T05:10:22.165Z,5.60
2018-06-14T05:12:52.596Z,5.50
2018-06-14T05:15:22.773Z,5.70
2018-06-14T05:17:53.817Z,6.70
2018-06-14T05:20:24.162Z,7.20
2018-06-14T05:22:54.537Z,6.93
2018-06-14T05:25:24.965Z,6.17
2018-06-14T05:27:55.925Z,6.90
2018-06-14T05:30:26.277Z,6.90
2018-06-14T05:32:56.703Z,5.67
2018-06-14T05:35:26.788Z,7.03
2018-06-14T05:38:00.896Z,7.63
2018-06-14T05:40:31.134Z,6.87
2018-06-14T05:43:01.463Z,6.30
2018-06-14T05:45:31.702Z,4.67
2018-06-14T05:48:02.055Z,5.00
2018-06-14T05:50:32.432Z,3.83
2018-06-14T05:53:02.795Z,3.13
2018-06-14T05:55:33.132Z,2.87
2018-06-14T05:58:06.937Z,2.27
2018-06-14T06:00:37.279Z,2.00
2018-06-14T06:03:07.667Z,2.10
2018-06-14T06:05:37.879Z,1.80
2018-06-14T06:08:12.102Z,1.50
2018-06-14T06:10:42.497Z,1.50
2018-06-14T06:13:13.036Z,2.80
2018-06-14T06:15:43.273Z,1.80
2018-06-14T06:18:13.794Z,2.00
2018-06-14T06:20:44.001Z,1.87
2018-06-14T06:23:14.364Z,1.50
2018-06-14T06:25:44.667Z,2.10
2018-06-14T06:28:19.068Z,1.77
2018-06-14T06:30:49.322Z,2.57
2018-06-14T06:33:19.819Z,1.83
2018-06-14T06:35:49.920Z,1.80
2018-06-14T06:38:20.347Z,1.50
2018-06-14T06:40:50.797Z,1.37
2018-06-14T06:43:21.186Z,1.80
2018-06-14T06:45:51.629Z,1.90
2018-06-14T06:48:34.021Z,1.70
2018-06-14T06:51:04.570Z,1.67
2018-06-14T06:53:34.942Z,1.90
2018-06-14T06:56:05.269Z,1.47
2018-06-14T06:58:36.896Z,1.67
2018-06-14T07:01:07.282Z,2.30
2018-06-14T07:03:37.585Z,1.60
2018-06-14T07:06:07.919Z,1.93
2018-06-14T07:08:38.163Z,2.10
2018-06-14T07:11:08.418Z,1.87
2018-06-14T07:13:38.809Z,1.40
2018-06-14T07:16:09.277Z,2.10
2018-06-14T07:18:41.216Z,1.70
2018-06-14T07:21:11.679Z,1.70
2018-06-14T07:23:42.039Z,1.43
2018-06-14T07:26:12.241Z,1.40
2018-06-14T07:28:43.734Z,1.77
2018-06-14T07:31:14.055Z,1.57
2018-06-14T07:33:44.450Z,1.50
2018-06-14T07:36:14.887Z,1.43
2018-06-14T07:38:49.014Z,1.40
2018-06-14T07:41:23.393Z,1.63
2018-06-14T07:43:53.810Z,1.40
2018-06-14T07:46:24.196Z,1.60
2018-06-14T07:48:56.031Z,1.30
2018-06-14T07:51:26.385Z,1.57
2018-06-14T07:53:56.687Z,1.50
2018-06-14T07:56:27.061Z,1.43
2018-06-14T07:58:57.506Z,1.33
2018-06-14T08:01:27.881Z,1.33
2018-06-14T08:03:58.266Z,1.83
2018-06-14T08:06:32.759Z,1.40
2018-06-14T08:09:02.925Z,1.40
2018-06-14T08:11:33.518Z,1.73
2018-06-14T08:14:03.742Z,1.03
2018-06-14T08:16:38.031Z,1.20
2018-06-14T08:19:08.462Z,1.20
2018-06-14T08:21:38.929Z,1.67
2018-06-14T08:24:09.180Z,1.17
2018-06-14T08:26:43.546Z,1.80
2018-06-14T08:29:13.893Z,1.27
2018-06-14T08:31:44.345Z,1.07
2018-06-14T08:34:14.853Z,1.30
2018-06-14T08:36:46.362Z,1.00
2018-06-14T08:39:16.807Z,4.40
2018-06-14T08:41:47.251Z,1.63
2018-06-14T08:44:17.857Z,1.90
2018-06-14T08:46:52.662Z,1.37
2018-06-14T08:49:23.430Z,1.23
2018-06-14T08:51:53.956Z,1.30
2018-06-14T08:54:24.591Z,1.73
2018-06-14T08:57:00.706Z,1.77
2018-06-14T08:59:31.024Z,1.70
2018-06-14T09:02:01.303Z,1.90
2018-06-14T09:04:31.754Z,1.47
2018-06-14T09:07:02.350Z,1.33
2018-06-14T09:09:32.641Z,1.40
2018-06-14T09:12:03.003Z,1.27
2018-06-14T09:14:33.261Z,1.30
2018-06-14T09:17:03.273Z,1.53
2018-06-14T09:19:33.851Z,1.43
2018-06-14T09:22:04.428Z,1.00
2018-06-14T09:24:34.718Z,1.43
2018-06-14T09:27:04.889Z,1.50
2018-06-14T09:29:35.991Z,1.37
2018-06-14T09:32:06.414Z,1.57
2018-06-14T09:34:36.902Z,1.10
2018-06-14T09:37:07.605Z,1.17
2018-06-14T09:39:38.776Z,1.40
2018-06-14T09:42:09.166Z,1.57
2018-06-14T09:44:39.419Z,1.50
2018-06-14T09:47:09.966Z,1.63
2018-06-14T09:49:40.392Z,1.30
2018-06-14T09:52:10.633Z,2.07
2018-06-14T09:54:40.990Z,1.00
2018-06-14T09:57:11.626Z,1.37
2018-06-14T09:59:42.180Z,1.17
2018-06-14T10:02:13.563Z,1.50
2018-06-14T10:04:44.390Z,0.90
2018-06-14T10:07:16.813Z,1.60
2018-06-14T10:09:47.164Z,1.10
2018-06-14T10:12:17.312Z,1.20
2018-06-14T10:14:47.757Z,1.20
2018-06-14T10:17:21.490Z,1.37
2018-06-14T10:19:51.931Z,1.13
2018-06-14T10:22:23.378Z,1.53
2018-06-14T10:24:54.435Z,1.27
2018-06-14T10:27:30.554Z,1.50
2018-06-14T10:30:00.986Z,1.07
2018-06-14T10:32:31.474Z,1.40
2018-06-14T10:35:01.834Z,1.33
2018-06-14T10:37:35.419Z,1.40
2018-06-14T10:40:05.797Z,1.23
2018-06-14T10:42:36.200Z,1.10
2018-06-14T10:45:06.451Z,1.30
2018-06-14T10:47:36.912Z,1.10
2018-06-14T10:50:07.427Z,0.87
2018-06-14T10:52:37.677Z,0.80
2018-06-14T10:55:07.982Z,0.60
2018-06-14T10:57:42.163Z,1.07
2018-06-14T11:00:14.124Z,1.17
2018-06-14T11:02:44.410Z,1.17
2018-06-14T11:05:14.879Z,1.00
2018-06-14T11:07:48.824Z,1.00
2018-06-14T11:10:21.341Z,1.10
2018-06-14T11:12:51.807Z,1.17
2018-06-14T11:15:24.839Z,1.13
2018-06-14T11:17:58.570Z,1.30
2018-06-14T11:20:28.848Z,1.10
2018-06-14T11:22:59.177Z,1.37
2018-06-14T11:25:29.622Z,1.10
2018-06-14T11:28:05.737Z,0.90
2018-06-14T11:30:36.370Z,1.10
2018-06-14T11:33:06.623Z,1.00
2018-06-14T11:35:37.007Z,1.20
2018-06-14T11:38:07.644Z,1.07
2018-06-14T11:40:38.189Z,1.00
2018-06-14T11:43:08.464Z,1.30
2018-06-14T11:45:39.033Z,1.40
2018-06-14T11:48:09.298Z,1.37
2018-06-14T11:50:39.444Z,1.10
2018-06-14T11:53:09.676Z,1.03
2018-06-14T11:55:40.090Z,1.20
2018-06-14T11:58:14.273Z,1.30
2018-06-14T12:00:44.717Z,1.10
2018-06-14T12:03:14.991Z,1.13
2018-06-14T12:05:45.306Z,1.63
2018-06-14T12:08:18.872Z,1.10
2018-06-14T12:10:49.196Z,1.33
2018-06-14T12:13:19.656Z,2.47
2018-06-14T12:15:49.945Z,1.40
2018-06-14T12:18:20.253Z,1.50
2018-06-14T12:20:50.703Z,1.70
2018-06-14T12:23:21.056Z,1.83
2018-06-14T12:25:51.450Z,1.27
2018-06-14T12:28:21.829Z,1.50
2018-06-14T12:30:52.256Z,1.40
2018-06-14T12:33:22.674Z,1.40
2018-06-14T12:35:55.939Z,1.30
2018-06-14T12:38:26.089Z,1.10
2018-06-14T12:40:56.520Z,1.30
2018-06-14T12:43:26.970Z,0.80
2018-06-14T12:45:57.322Z,1.10
2018-06-14T12:48:27.654Z,1.00
2018-06-14T12:50:58.027Z,1.20
2018-06-14T12:53:28.333Z,1.23
2018-06-14T12:55:58.860Z,1.30
2018-06-14T12:58:29.088Z,1.07
2018-06-14T13:01:02.806Z,1.30
2018-06-14T13:03:37.206Z,1.20
2018-06-14T13:06:09.125Z,1.40
2018-06-14T13:08:40.552Z,1.30
2018-06-14T13:11:11.478Z,1.00
2018-06-14T13:13:41.737Z,1.50
2018-06-14T13:16:17.139Z,1.30
2018-06-14T13:18:47.924Z,1.10
2018-06-14T13:21:19.886Z,1.60
2018-06-14T13:23:50.730Z,1.60
2018-06-14T13:26:24.775Z,1.60
2018-06-14T13:28:55.262Z,1.60
2018-06-14T13:31:27.153Z,1.30
2018-06-14T13:33:58.381Z,1.70
2018-06-14T13:36:31.870Z,1.50
2018-06-14T13:39:02.185Z,1.63
2018-06-14T13:41:32.573Z,1.37
2018-06-14T13:44:02.807Z,1.70
2018-06-14T13:46:36.242Z,1.20
2018-06-14T13:49:06.703Z,1.30
2018-06-14T13:51:37.059Z,1.40
2018-06-14T13:54:07.397Z,1.53
2018-06-14T13:56:38.981Z,1.13
2018-06-14T13:59:09.207Z,1.60
2018-06-14T14:01:39.541Z,1.60
2018-06-14T14:04:10.006Z,1.80
2018-06-14T14:06:41.354Z,1.93
2018-06-14T14:09:11.738Z,1.27
2018-06-14T14:11:42.024Z,1.40
2018-06-14T14:14:12.288Z,1.30
2018-06-14T14:16:42.709Z,1.37
2018-06-14T14:19:13.144Z,1.77
2018-06-14T14:21:43.480Z,1.93
2018-06-14T14:24:13.726Z,1.97
2018-06-14T14:26:47.647Z,1.83
2018-06-14T14:29:18.085Z,1.60
2018-06-14T14:31:48.366Z,2.13
2018-06-14T14:34:18.826Z,1.87
2018-06-14T14:36:52.665Z,2.03
2018-06-14T14:39:23.111Z,2.10
2018-06-14T14:41:53.442Z,2.03
2018-06-14T14:44:23.746Z,2.10
2018-06-14T14:46:57.769Z,2.17
2018-06-14T14:49:28.058Z,2.07
2018-06-14T14:51:58.521Z,2.07
2018-06-14T14:54:28.773Z,2.10
2018-06-14T14:57:02.742Z,1.77
2018-06-14T14:59:33.202Z,1.60
2018-06-14T15:02:03.609Z,1.67
2018-06-14T15:04:34.118Z,2.20
2018-06-14T15:07:05.637Z,1.80
2018-06-14T15:09:36.058Z,1.57
2018-06-14T15:12:06.338Z,1.70
2018-06-14T15:14:36.798Z,1.90
2018-06-14T15:17:08.279Z,1.90
2018-06-14T15:19:38.706Z,2.90
2018-06-14T15:22:09.038Z,2.10
2018-06-14T15:24:39.382Z,2.00
2018-06-14T15:27:10.896Z,1.90
2018-06-14T15:29:41.104Z,2.60
2018-06-14T15:32:11.343Z,2.07
2018-06-14T15:34:41.732Z,2.13
2018-06-14T15:37:17.909Z,1.90
2018-06-14T15:39:48.368Z,2.30
2018-06-14T15:42:18.736Z,2.13
2018-06-14T15:44:49.014Z,2.33
2018-06-14T15:47:23.053Z,1.87
2018-06-14T15:49:53.449Z,1.53
2018-06-14T15:52:23.809Z,1.80
2018-06-14T15:54:53.456Z,1.83
2018-06-14T15:57:23.797Z,1.47
2018-06-14T15:59:54.260Z,2.07
2018-06-14T16:02:24.558Z,1.87
2018-06-14T16:04:54.987Z,1.90
2018-06-14T16:07:25.783Z,1.70
2018-06-14T16:09:56.354Z,1.67
2018-06-14T16:12:26.555Z,2.47
2018-06-14T16:14:56.995Z,2.13
2018-06-14T16:17:30.977Z,2.17
2018-06-14T16:20:02.987Z,2.10
2018-06-14T16:22:33.433Z,2.00
2018-06-14T16:25:03.901Z,1.67
2018-06-14T16:27:38.014Z,1.50
2018-06-14T16:30:14.952Z,1.40
2018-06-14T16:32:50.803Z,1.60
2018-06-14T16:35:25.059Z,1.73
2018-06-14T16:38:00.382Z,1.47
2018-06-14T16:40:31.519Z,1.43
2018-06-14T16:43:04.963Z,1.67
2018-06-14T16:45:42.136Z,1.50
2018-06-14T16:48:15.689Z,1.70
2018-06-14T16:50:46.475Z,1.87
2018-06-14T16:53:17.388Z,1.63
2018-06-14T16:55:51.550Z,1.80
2018-06-14T16:58:21.932Z,2.33
2018-06-14T17:00:52.284Z,2.43
2018-06-14T17:03:22.700Z,2.00
2018-06-14T17:05:56.681Z,1.50
2018-06-14T17:08:27.112Z,1.97
2018-06-14T17:10:57.577Z,1.70
2018-06-14T17:13:28.086Z,1.67
2018-06-14T17:15:59.483Z,1.80
2018-06-14T17:18:29.810Z,1.93
2018-06-14T17:21:00.292Z,2.07
2018-06-14T17:23:30.787Z,2.17
2018-06-14T17:26:04.614Z,2.03
2018-06-14T17:28:35.213Z,2.10
2018-06-14T17:31:05.639Z,2.13
2018-06-14T17:33:36.088Z,2.20
2018-06-14T17:36:06.597Z,2.07
2018-06-14T17:38:36.777Z,2.10
2018-06-14T17:41:07.377Z,2.87
2018-06-14T17:43:37.869Z,2.13
2018-06-14T17:46:08.507Z,3.20
2018-06-14T17:48:38.998Z,3.13
2018-06-14T17:51:09.938Z,2.93
2018-06-14T17:56:28.145Z,3.57
2018-06-14T17:59:00.427Z,2.67
2018-06-14T18:01:35.773Z,3.50
2018-06-14T18:04:10.194Z,4.17
2018-06-14T18:06:46.258Z,3.47
2018-06-14T18:09:16.791Z,2.90
2018-06-14T18:11:47.230Z,3.23
2018-06-14T18:14:17.887Z,2.90
2018-06-14T18:16:48.618Z,2.90
2018-06-14T18:19:19.129Z,2.97
2018-06-14T18:21:49.331Z,2.50
2018-06-14T18:24:19.579Z,2.40
2018-06-14T18:26:50.298Z,2.80
2018-06-14T18:31:28.577Z,2.73
2018-06-14T18:36:05.297Z,2.73
2018-06-14T18:40:44.844Z,2.90
2018-06-14T18:45:22.047Z,2.50
2018-06-14T18:49:59.316Z,3.20
2018-06-14T18:54:36.163Z,2.87
2018-06-14T18:59:13.996Z,2.53
2018-06-14T19:03:50.733Z,2.50
2018-06-14T19:08:27.835Z,3.00
2018-06-14T19:13:04.731Z,3.20
2018-06-14T19:17:41.739Z,3.13
2018-06-14T19:22:18.580Z,3.33
2018-06-14T19:26:57.385Z,3.73
2018-06-14T19:31:34.355Z,3.90
2018-06-14T19:36:11.349Z,4.50
2018-06-14T19:40:48.129Z,4.33
2018-06-14T19:45:27.189Z,3.10
2018-06-14T19:50:09.876Z,3.57
2018-06-14T19:54:46.877Z,4.40
2018-06-14T19:59:23.592Z,4.00
2018-06-14T20:04:00.435Z,3.50
2018-06-14T20:08:37.293Z,4.10
2018-06-14T20:13:14.062Z,3.87
2018-06-14T20:17:51.163Z,4.00
2018-06-14T20:22:27.990Z,4.07
2018-06-14T20:27:04.704Z,3.77
2018-06-14T20:32:34.575Z,4.67
2018-06-14T20:37:13.414Z,4.20
2018-06-14T20:41:51.969Z,4.63
2018-06-14T20:46:31.712Z,4.53
2018-06-14T20:51:10.242Z,4.10
2018-06-14T20:55:50.052Z,4.23
2018-06-14T21:00:29.286Z,4.40
2018-06-14T21:05:08.237Z,4.53
2018-06-14T21:09:46.944Z,4.53
2018-06-14T21:14:25.606Z,4.70
2018-06-14T21:19:04.213Z,3.97
2018-06-14T21:23:42.765Z,4.07
2018-06-14T21:28:21.413Z,4.07
2018-06-14T21:32:59.949Z,4.20
2018-06-14T21:37:38.609Z,4.00
2018-06-14T21:42:17.115Z,3.93
2018-06-14T21:46:55.999Z,4.30
2018-06-14T21:51:34.475Z,3.90
2018-06-14T21:56:13.261Z,4.43
2018-06-14T22:00:51.850Z,4.00
2018-06-14T22:05:30.564Z,4.30
2018-06-14T22:10:09.138Z,3.93
2018-06-14T22:14:47.881Z,4.67
2018-06-14T22:19:26.179Z,3.97
2018-06-14T22:24:04.717Z,4.53
2018-06-14T22:28:43.497Z,4.50
2018-06-14T22:35:36.513Z,4.53
2018-06-14T22:40:15.065Z,4.60
2018-06-14T22:44:53.716Z,4.00
2018-06-14T22:49:32.275Z,4.50
2018-06-14T22:54:10.858Z,4.20
2018-06-14T22:58:49.420Z,4.60
2018-06-14T23:03:27.913Z,4.70
2018-06-14T23:08:07.599Z,4.37
2018-06-14T23:12:46.885Z,4.70
2018-06-14T23:17:29.291Z,4.40
2018-06-14T23:22:07.938Z,4.60
2018-06-14T23:26:46.686Z,5.00
2018-06-14T23:31:25.345Z,5.10
2018-06-14T23:36:03.986Z,5.23
2018-06-14T23:40:42.545Z,5.80
2018-06-14T23:45:21.228Z,5.83
2018-06-14T23:49:59.704Z,5.13
2018-06-14T23:54:39.433Z,5.40
2018-06-14T23:59:18.036Z,5.50
